Time,TemperatureF,DewpointF,PressureIn,WindDirection,WindDirectionDegrees,WindSpeedMPH,WindSpeedGustMPH,Humidity,HourlyPrecipIn,Conditions,Clouds,dailyrainin,SolarRadiationWatts/m^2,SoftwareType,DateUTC
2015-03-29 00:02:00,61.0,31.7,30.03,ESE,116,0.0,0.0,33,0.00,,SKC,0.00,0.00,VWS V14.01,2015-03-29 06:02:00,
2015-03-29 00:07:00,60.7,31.5,30.03,South,173,0.0,3.0,33,0.00,,SKC,0.00,0.00,VWS V14.01,2015-03-29 06:07:00,
2015-03-29 00:12:00,60.1,30.9,30.03,South,173,1.0,2.0,33,0.00,,SKC,0.00,0.00,VWS V14.01,2015-03-29 06:12:00,
2015-03-29 00:17:00,59.5,31.1,30.03,South,173,0.0,2.0,34,0.00,,SKC,0.00,0.00,VWS V14.01,2015-03-29 06:17:00,
2015-03-29 00:22:00,58.9,30.6,30.04,South,173,0.0,0.0,34,0.00,,SKC,0.00,0.00,VWS V14.01,2015-03-29 06:22:00,
2015-03-29 00:27:00,58.3,30.8,30.03,South,172,0.0,2.0,35,0.00,,SKC,0.00,0.00,VWS V14.01,2015-03-29 06:27:00,
2015-03-29 00:32:00,57.8,30.4,30.04,SSW,202,0.0,0.0,35,0.00,,SKC,0.00,0.00,VWS V14.01,2015-03-29 06:32:00,
2015-03-29 00:37:00,57.3,30.6,30.04,SSW,202,0.0,1.0,36,0.00,,SKC,0.00,0.00,VWS V14.01,2015-03-29 06:37:00,
2015-03-29 00:42:00,56.8,30.1,30.06,WSW,255,0.0,3.0,36,0.00,,SKC,0.00,0.00,VWS V14.01,2015-03-29 06:42:00,
2015-03-29 00:47:00,56.4,30.5,30.06,WSW,255,0.0,2.0,37,0.00,,SKC,0.00,0.00,VWS V14.01,2015-03-29 06:47:00,
2015-03-29 00:52:00,56.4,25.4,30.05,SE,142,2.0,4.0,30,0.00,,SKC,0.00,0.00,VWS V14.01,2015-03-29 06:52:00,
2015-03-29 00:57:00,58.2,24.4,30.06,NNE,31,0.0,4.0,27,0.00,,SKC,0.00,0.00,VWS V14.01,2015-03-29 06:57:00,
2015-03-29 01:02:00,59.1,28.5,30.06,NNE,24,3.0,4.0,31,0.00,,SKC,0.00,0.00,VWS V14.01,2015-03-29 07:02:00,
2015-03-29 01:07:00,60.2,24.3,30.06,ESE,102,0.0,2.0,25,0.00,,SKC,0.00,0.00,VWS V14.01,2015-03-29 07:07:00,
2015-03-29 01:12:00,60.5,24.5,30.06,ESE,119,0.0,1.0,25,0.00,,SKC,0.00,0.00,VWS V14.01,2015-03-29 07:12:00,
2015-03-29 01:17:00,60.2,24.3,30.06,ENE,69,0.0,2.0,25,0.00,,SKC,0.00,0.00,VWS V14.01,2015-03-29 07:17:00,
2015-03-29 01:22:00,60.0,24.1,30.07,ENE,69,0.0,2.0,25,0.00,,SKC,0.00,0.00,VWS V14.01,2015-03-29 07:22:00,
2015-03-29 01:27:00,59.6,21.8,30.06,WNW,285,0.0,3.0,23,0.00,,SKC,0.00,0.00,VWS V14.01,2015-03-29 07:27:00,
2015-03-29 01:32:00,59.4,19.5,30.06,SW,234,0.0,3.0,21,0.00,,SKC,0.00,0.00,VWS V14.01,2015-03-29 07:32:00,
2015-03-29 01:37:00,59.3,19.4,30.07,North,2,2.0,3.0,21,0.00,,SKC,0.00,0.00,VWS V14.01,2015-03-29 07:37:00,
2015-03-29 01:42:00,59.8,18.7,30.07,WNW,298,0.0,9.0,20,0.00,,SKC,0.00,0.00,VWS V14.01,2015-03-29 07:42:00,
2015-03-29 01:47:00,60.5,16.8,30.06,West,279,3.0,7.0,18,0.00,,SKC,0.00,0.00,VWS V14.01,2015-03-29 07:47:00,
2015-03-29 01:52:00,61.1,17.3,30.07,South,188,3.0,3.0,18,0.00,,SKC,0.00,0.00,VWS V14.01,2015-03-29 07:52:00,
2015-03-29 01:57:00,60.9,18.4,30.07,SSW,194,0.0,3.0,19,0.00,,SKC,0.00,0.00,VWS V14.01,2015-03-29 07:57:00,
2015-03-29 02:02:00,60.5,19.2,30.07,ESE,111,0.0,3.0,20,0.00,,SKC,0.00,0.00,VWS V14.01,2015-03-29 08:02:00,
2015-03-29 02:07:00,59.9,18.8,30.08,ESE,111,0.0,0.0,20,0.00,,SKC,0.00,0.00,VWS V14.01,2015-03-29 08:07:00,
2015-03-29 02:12:00,59.0,19.1,30.08,ESE,111,0.0,0.0,21,0.00,,SKC,0.00,0.00,VWS V14.01,2015-03-29 08:12:00,
2015-03-29 02:17:00,57.9,18.2,30.09,ESE,111,0.0,0.0,21,0.00,,SKC,0.00,0.00,VWS V14.01,2015-03-29 08:17:00,
2015-03-29 02:22:00,56.8,17.3,30.09,North,357,0.0,3.0,21,0.00,,SKC,0.00,0.00,VWS V14.01,2015-03-29 08:22:00,
2015-03-29 02:27:00,56.4,19.1,30.10,SW,234,0.0,3.0,23,0.00,,SKC,0.00,0.00,VWS V14.01,2015-03-29 08:27:00,
2015-03-29 02:32:00,56.1,18.8,30.10,North,357,0.0,1.0,23,0.00,,SKC,0.00,0.00,VWS V14.01,2015-03-29 08:32:00,
2015-03-29 02:37:00,55.8,16.5,30.11,NNW,339,0.0,2.0,21,0.00,,SKC,0.00,0.00,VWS V14.01,2015-03-29 08:37:00,
2015-03-29 02:42:00,55.8,17.5,30.11,NNW,339,0.0,2.0,22,0.00,,SKC,0.00,0.00,VWS V14.01,2015-03-29 08:42:00,
2015-03-29 02:47:00,56.9,15.1,30.10,NNE,33,1.0,5.0,19,0.00,,SKC,0.00,0.00,VWS V14.01,2015-03-29 08:47:00,
2015-03-29 02:52:00,57.5,16.8,30.10,WNW,288,0.0,1.0,20,0.00,,SKC,0.00,0.00,VWS V14.01,2015-03-29 08:52:00,
2015-03-29 02:57:00,57.6,15.7,30.11,WSW,257,0.0,5.0,19,0.00,,SKC,0.00,0.00,VWS V14.01,2015-03-29 08:57:00,
2015-03-29 03:02:00,57.7,15.8,30.10,West,276,0.0,4.0,19,0.00,,SKC,0.00,0.00,VWS V14.01,2015-03-29 09:02:00,
2015-03-29 03:07:00,57.7,14.5,30.11,West,276,0.0,4.0,18,0.00,,SKC,0.00,0.00,VWS V14.01,2015-03-29 09:07:00,
2015-03-29 03:12:00,57.6,14.4,30.11,West,272,3.0,5.0,18,0.00,,SKC,0.00,0.00,VWS V14.01,2015-03-29 09:12:00,
2015-03-29 03:17:00,57.8,14.6,30.11,WNW,286,0.0,5.0,18,0.00,,SKC,0.00,0.00,VWS V14.01,2015-03-29 09:17:00,
2015-03-29 03:22:00,57.8,14.6,30.12,West,271,0.0,2.0,18,0.00,,SKC,0.00,0.00,VWS V14.01,2015-03-29 09:22:00,
2015-03-29 03:27:00,57.6,14.4,30.11,WNW,291,3.0,6.0,18,0.00,,SKC,0.00,0.00,VWS V14.01,2015-03-29 09:27:00,
2015-03-29 03:32:00,57.7,14.5,30.12,West,265,2.0,2.0,18,0.00,,SKC,0.00,0.00,VWS V14.01,2015-03-29 09:32:00,
2015-03-29 03:37:00,57.4,15.5,30.12,West,265,0.0,3.0,19,0.00,,SKC,0.00,0.00,VWS V14.01,2015-03-29 09:37:00,
2015-03-29 03:42:00,57.1,16.4,30.12,West,281,0.0,2.0,20,0.00,,SKC,0.00,0.00,VWS V14.01,2015-03-29 09:42:00,
2015-03-29 03:47:00,56.6,16.0,30.12,West,281,0.0,3.0,20,0.00,,SKC,0.00,0.00,VWS V14.01,2015-03-29 09:47:00,
2015-03-29 03:52:00,56.2,15.7,30.12,West,281,0.0,1.0,20,0.00,,SKC,0.00,0.00,VWS V14.01,2015-03-29 09:52:00,
2015-03-29 03:57:00,55.7,15.3,30.12,NNW,346,0.0,1.0,20,0.00,,SKC,0.00,0.00,VWS V14.01,2015-03-29 09:57:00,
2015-03-29 04:02:00,55.2,13.7,30.13,NNW,346,0.0,2.0,19,0.00,,SKC,0.00,0.00,VWS V14.01,2015-03-29 10:02:00,
2015-03-29 04:07:00,55.3,13.8,30.13,NNE,17,4.0,6.0,19,0.00,,SKC,0.00,0.00,VWS V14.01,2015-03-29 10:07:00,
2015-03-29 04:12:00,56.3,14.6,30.13,NNW,348,2.0,12.0,19,0.00,,SKC,0.00,0.00,VWS V14.01,2015-03-29 10:12:00,
2015-03-29 04:17:00,56.9,13.9,30.13,North,8,2.0,6.0,18,0.00,,SKC,0.00,0.00,VWS V14.01,2015-03-29 10:17:00,
2015-03-29 04:22:00,57.1,14.0,30.13,North,360,3.0,7.0,18,0.00,,SKC,0.00,0.00,VWS V14.01,2015-03-29 10:22:00,
2015-03-29 04:27:00,57.2,14.1,30.12,NE,37,2.0,12.0,18,0.00,,SKC,0.00,0.00,VWS V14.01,2015-03-29 10:27:00,
2015-03-29 04:32:00,57.0,15.2,30.12,NNE,19,1.0,6.0,19,0.00,,SKC,0.00,0.00,VWS V14.01,2015-03-29 10:32:00,
2015-03-29 04:37:00,56.7,14.9,30.11,West,276,11.0,11.0,19,0.00,,SKC,0.00,0.00,VWS V14.01,2015-03-29 10:37:00,
2015-03-29 04:42:00,56.8,13.8,30.10,North,354,2.0,15.0,18,0.00,,SKC,0.00,0.00,VWS V14.01,2015-03-29 10:42:00,
2015-03-29 04:47:00,57.3,12.9,30.11,NW,312,6.0,6.0,17,0.00,,SKC,0.00,0.00,VWS V14.01,2015-03-29 10:47:00,
2015-03-29 04:52:00,57.6,13.1,30.12,NW,312,5.0,10.0,17,0.00,,SKC,0.00,0.00,VWS V14.01,2015-03-29 10:52:00,
2015-03-29 04:57:00,57.7,13.2,30.13,NNE,25,1.0,2.0,17,0.00,,SKC,0.00,0.00,VWS V14.01,2015-03-29 10:57:00,
2015-03-29 05:02:00,57.2,17.6,30.14,ESE,117,4.0,6.0,21,0.00,,SKC,0.00,0.00,VWS V14.01,2015-03-29 11:02:00,
2015-03-29 05:07:00,55.3,20.1,30.15,SE,125,2.0,4.0,25,0.00,,SKC,0.00,0.00,VWS V14.01,2015-03-29 11:07:00,
2015-03-29 05:12:00,53.7,20.5,30.15,ESE,117,0.0,5.0,27,0.00,,SKC,0.00,0.00,VWS V14.01,2015-03-29 11:12:00,
2015-03-29 05:17:00,52.3,23.3,30.17,ESE,102,0.0,12.0,32,0.00,,SKC,0.00,0.00,VWS V14.01,2015-03-29 11:17:00,
2015-03-29 05:22:00,50.9,24.9,30.18,ESE,109,0.0,3.0,36,0.00,,SKC,0.00,0.00,VWS V14.01,2015-03-29 11:22:00,
2015-03-29 05:27:00,49.7,25.8,30.19,ESE,115,3.0,4.0,39,0.00,,SKC,0.00,0.00,VWS V14.01,2015-03-29 11:27:00,
2015-03-29 05:32:00,48.5,25.9,30.19,ESE,121,4.0,4.0,41,0.00,,SKC,0.00,0.00,VWS V14.01,2015-03-29 11:32:00,
2015-03-29 05:37:00,47.6,25.7,30.20,SW,232,0.0,4.0,42,0.00,,SKC,0.00,0.00,VWS V14.01,2015-03-29 11:37:00,
2015-03-29 05:42:00,46.9,25.6,30.19,South,175,0.0,4.0,43,0.00,,SKC,0.00,0.00,VWS V14.01,2015-03-29 11:42:00,
2015-03-29 05:47:00,46.5,25.8,30.20,WNW,285,0.0,3.0,44,0.00,,SKC,0.00,0.00,VWS V14.01,2015-03-29 11:47:00,
2015-03-29 05:52:00,46.2,25.5,30.19,SSW,194,0.0,2.0,44,0.00,,SKC,0.00,0.00,VWS V14.01,2015-03-29 11:52:00,
2015-03-29 05:57:00,46.1,24.9,30.18,South,187,1.0,6.0,43,0.00,,SKC,0.00,0.00,VWS V14.01,2015-03-29 11:57:00,
2015-03-29 06:02:00,46.1,23.7,30.18,NNW,333,0.0,4.0,41,0.00,,SKC,0.00,0.00,VWS V14.01,2015-03-29 12:02:00,
2015-03-29 06:07:00,46.1,23.7,30.19,NE,52,0.0,2.0,41,0.00,,SKC,0.00,0.00,VWS V14.01,2015-03-29 12:07:00,
2015-03-29 06:12:00,45.6,25.5,30.21,ESE,121,4.0,7.0,45,0.00,,SKC,0.00,0.00,VWS V14.01,2015-03-29 12:12:00,
2015-03-29 06:17:00,45.0,25.5,30.21,East,94,3.0,6.0,46,0.00,,SKC,0.00,0.00,VWS V14.01,2015-03-29 12:17:00,
2015-03-29 06:22:00,44.4,25.5,30.22,SSE,151,2.0,6.0,47,0.00,,SKC,0.00,0.00,VWS V14.01,2015-03-29 12:22:00,
2015-03-29 06:27:00,44.2,25.3,30.22,ESE,123,0.0,4.0,47,0.00,,SKC,0.00,0.00,VWS V14.01,2015-03-29 12:27:00,
2015-03-29 06:32:00,44.2,25.8,30.24,SW,226,1.0,2.0,48,0.00,,SKC,0.00,0.00,VWS V14.01,2015-03-29 12:32:00,
2015-03-29 06:37:00,44.2,26.3,30.23,SSW,194,0.0,5.0,49,0.00,,SKC,0.00,0.00,VWS V14.01,2015-03-29 12:37:00,
2015-03-29 06:42:00,44.1,25.7,30.23,SSW,193,2.0,6.0,48,0.00,,SKC,0.00,0.00,VWS V14.01,2015-03-29 12:42:00,
2015-03-29 06:47:00,44.1,25.2,30.22,SSE,154,1.0,8.0,47,0.00,,SKC,0.00,0.00,VWS V14.01,2015-03-29 12:47:00,
2015-03-29 06:52:00,44.4,26.0,30.23,ESE,123,2.0,4.0,48,0.00,,SKC,0.00,0.00,VWS V14.01,2015-03-29 12:52:00,
2015-03-29 06:57:00,44.6,26.6,30.24,SE,125,4.0,10.0,49,0.00,,SKC,0.00,5.00,VWS V14.01,2015-03-29 12:57:00,
2015-03-29 07:02:00,44.3,26.9,30.24,ESE,113,1.0,5.0,50,0.00,,SKC,0.00,7.00,VWS V14.01,2015-03-29 13:02:00,
2015-03-29 07:07:00,43.9,26.5,30.24,SSW,200,0.0,4.0,50,0.00,,SKC,0.00,11.00,VWS V14.01,2015-03-29 13:07:00,
2015-03-29 07:12:00,43.7,26.3,30.24,South,173,2.0,4.0,50,0.00,,SKC,0.00,12.00,VWS V14.01,2015-03-29 13:12:00,
2015-03-29 07:17:00,43.6,26.2,30.25,SSW,200,2.0,4.0,50,0.00,,SKC,0.00,14.00,VWS V14.01,2015-03-29 13:17:00,
2015-03-29 07:22:00,43.5,25.6,30.26,South,183,0.0,5.0,49,0.00,,SKC,0.00,16.00,VWS V14.01,2015-03-29 13:22:00,
2015-03-29 07:27:00,43.7,25.3,30.27,South,185,1.0,5.0,48,0.00,,SKC,0.00,19.00,VWS V14.01,2015-03-29 13:27:00,
2015-03-29 07:32:00,43.9,26.0,30.27,South,185,0.0,1.0,49,0.00,,SKC,0.00,21.00,VWS V14.01,2015-03-29 13:32:00,
2015-03-29 07:37:00,44.1,26.2,30.27,South,181,1.0,4.0,49,0.00,,SKC,0.00,21.00,VWS V14.01,2015-03-29 13:37:00,
2015-03-29 07:42:00,44.4,26.5,30.27,South,188,2.0,5.0,49,0.00,,SKC,0.00,23.00,VWS V14.01,2015-03-29 13:42:00,
2015-03-29 07:47:00,44.9,25.9,30.26,SSW,195,0.0,5.0,47,0.00,,SKC,0.00,25.00,VWS V14.01,2015-03-29 13:47:00,
2015-03-29 07:52:00,45.2,26.7,30.27,SSW,199,0.0,4.0,48,0.00,,SKC,0.00,26.00,VWS V14.01,2015-03-29 13:52:00,
2015-03-29 07:57:00,45.4,26.4,30.27,SE,137,0.0,2.0,47,0.00,,SKC,0.00,28.00,VWS V14.01,2015-03-29 13:57:00,
2015-03-29 08:02:00,45.8,26.7,30.28,East,91,1.0,3.0,47,0.00,,SKC,0.00,30.00,VWS V14.01,2015-03-29 14:02:00,
2015-03-29 08:07:00,46.1,27.0,30.27,SE,131,1.0,3.0,47,0.00,,SKC,0.00,32.00,VWS V14.01,2015-03-29 14:07:00,
2015-03-29 08:12:00,46.3,27.2,30.28,SSW,198,1.0,3.0,47,0.00,,SKC,0.00,33.00,VWS V14.01,2015-03-29 14:12:00,
2015-03-29 08:17:00,46.7,26.5,30.28,SSW,196,1.0,4.0,45,0.00,,SKC,0.00,35.00,VWS V14.01,2015-03-29 14:17:00,
2015-03-29 08:22:00,47.0,26.2,30.28,South,184,1.0,4.0,44,0.00,,SKC,0.00,42.00,VWS V14.01,2015-03-29 14:22:00,
2015-03-29 08:27:00,47.4,26.0,30.28,South,169,0.0,2.0,43,0.00,,SKC,0.00,65.00,VWS V14.01,2015-03-29 14:27:00,
2015-03-29 08:32:00,47.9,26.5,30.28,SSE,147,0.0,3.0,43,0.00,,SKC,0.00,128.00,VWS V14.01,2015-03-29 14:32:00,
2015-03-29 08:37:00,48.3,25.7,30.28,SSE,164,1.0,3.0,41,0.00,,SKC,0.00,202.00,VWS V14.01,2015-03-29 14:37:00,
2015-03-29 08:42:00,48.8,25.0,30.28,South,181,1.0,6.0,39,0.00,,SKC,0.00,199.00,VWS V14.01,2015-03-29 14:42:00,
2015-03-29 08:47:00,49.2,24.7,30.29,South,177,0.0,3.0,38,0.00,,SKC,0.00,274.00,VWS V14.01,2015-03-29 14:47:00,
2015-03-29 08:52:00,49.6,24.4,30.29,SSE,152,3.0,7.0,37,0.00,,SKC,0.00,167.00,VWS V14.01,2015-03-29 14:52:00,
2015-03-29 08:57:00,50.5,25.2,30.29,SSE,147,0.0,5.0,37,0.00,,SKC,0.00,265.00,VWS V14.01,2015-03-29 14:57:00,
2015-03-29 09:02:00,51.1,24.4,30.30,South,180,1.0,3.0,35,0.00,,SKC,0.00,283.00,VWS V14.01,2015-03-29 15:02:00,
2015-03-29 09:07:00,51.2,24.5,30.29,SSE,148,2.0,4.0,35,0.00,,SKC,0.00,241.00,VWS V14.01,2015-03-29 15:07:00,
2015-03-29 09:12:00,51.7,25.6,30.30,ESE,119,2.0,6.0,36,0.00,,SKC,0.00,288.00,VWS V14.01,2015-03-29 15:12:00,
2015-03-29 09:17:00,52.0,24.5,30.30,SE,127,1.0,3.0,34,0.00,,SKC,0.00,294.00,VWS V14.01,2015-03-29 15:17:00,
2015-03-29 09:22:00,52.3,24.8,30.30,South,173,0.0,3.0,34,0.00,,SKC,0.00,411.00,VWS V14.01,2015-03-29 15:22:00,
2015-03-29 09:27:00,52.3,24.8,30.30,SE,146,3.0,5.0,34,0.00,,SKC,0.00,462.00,VWS V14.01,2015-03-29 15:27:00,
2015-03-29 09:32:00,52.5,25.7,30.31,South,189,3.0,6.0,35,0.00,,SKC,0.00,410.00,VWS V14.01,2015-03-29 15:32:00,
2015-03-29 09:37:00,52.6,25.8,30.31,SSE,166,4.0,7.0,35,0.00,,SKC,0.00,499.00,VWS V14.01,2015-03-29 15:37:00,
2015-03-29 09:42:00,52.4,25.6,30.31,SE,137,1.0,7.0,35,0.00,,SKC,0.00,515.00,VWS V14.01,2015-03-29 15:42:00,
2015-03-29 09:47:00,52.6,25.0,30.31,SE,131,3.0,7.0,34,0.00,,SKC,0.00,536.00,VWS V14.01,2015-03-29 15:47:00,
2015-03-29 09:52:00,52.5,25.7,30.31,ESE,116,1.0,6.0,35,0.00,,SKC,0.00,545.00,VWS V14.01,2015-03-29 15:52:00,
2015-03-29 09:57:00,52.8,25.2,30.31,South,171,1.0,6.0,34,0.00,,SKC,0.00,559.00,VWS V14.01,2015-03-29 15:57:00,
2015-03-29 10:02:00,52.9,26.0,30.31,SE,136,1.0,7.0,35,0.00,,SKC,0.00,578.00,VWS V14.01,2015-03-29 16:02:00,
2015-03-29 10:07:00,53.3,25.0,30.31,East,99,2.0,8.0,33,0.00,,SKC,0.00,591.00,VWS V14.01,2015-03-29 16:07:00,
2015-03-29 10:12:00,52.6,24.3,30.31,SSE,157,2.0,7.0,33,0.00,,SKC,0.00,605.00,VWS V14.01,2015-03-29 16:12:00,
2015-03-29 10:17:00,53.3,25.0,30.31,ENE,66,3.0,5.0,33,0.00,,SKC,0.00,619.00,VWS V14.01,2015-03-29 16:17:00,
2015-03-29 10:22:00,53.9,24.7,30.31,East,101,2.0,8.0,32,0.00,,SKC,0.00,638.00,VWS V14.01,2015-03-29 16:22:00,
2015-03-29 10:27:00,54.4,26.6,30.31,SSE,163,0.0,3.0,34,0.00,,SKC,0.00,649.00,VWS V14.01,2015-03-29 16:27:00,
2015-03-29 10:32:00,54.5,24.5,30.31,SE,129,3.0,4.0,31,0.00,,SKC,0.00,661.00,VWS V14.01,2015-03-29 16:32:00,
2015-03-29 10:37:00,54.2,24.2,30.31,SSE,158,0.0,8.0,31,0.00,,SKC,0.00,673.00,VWS V14.01,2015-03-29 16:37:00,
2015-03-29 10:42:00,53.8,23.9,30.30,SE,134,2.0,8.0,31,0.00,,SKC,0.00,691.00,VWS V14.01,2015-03-29 16:42:00,
2015-03-29 10:47:00,54.2,24.2,30.30,ESE,120,4.0,5.0,31,0.00,,SKC,0.00,700.00,VWS V14.01,2015-03-29 16:47:00,
2015-03-29 10:52:00,54.2,24.2,30.30,South,172,5.0,8.0,31,0.00,,SKC,0.00,708.00,VWS V14.01,2015-03-29 16:52:00,
2015-03-29 10:57:00,54.4,23.6,30.30,SE,142,2.0,7.0,30,0.00,,SKC,0.00,719.00,VWS V14.01,2015-03-29 16:57:00,
2015-03-29 11:02:00,55.3,26.0,30.30,South,184,4.0,5.0,32,0.00,,SKC,0.00,729.00,VWS V14.01,2015-03-29 17:02:00,
2015-03-29 11:07:00,55.5,25.4,30.29,South,175,2.0,7.0,31,0.00,,SKC,0.00,744.00,VWS V14.01,2015-03-29 17:07:00,
2015-03-29 11:12:00,55.3,24.4,30.29,South,186,3.0,8.0,30,0.00,,SKC,0.00,754.00,VWS V14.01,2015-03-29 17:12:00,
2015-03-29 11:17:00,55.5,24.6,30.29,SSE,154,0.0,8.0,30,0.00,,SKC,0.00,761.00,VWS V14.01,2015-03-29 17:17:00,
2015-03-29 11:22:00,55.5,24.6,30.29,SE,142,5.0,7.0,30,0.00,,SKC,0.00,766.00,VWS V14.01,2015-03-29 17:22:00,
2015-03-29 11:27:00,55.7,24.8,30.29,SSE,160,5.0,9.0,30,0.00,,SKC,0.00,777.00,VWS V14.01,2015-03-29 17:27:00,
2015-03-29 11:32:00,56.1,25.1,30.29,SSE,167,3.0,7.0,30,0.00,,SKC,0.00,784.00,VWS V14.01,2015-03-29 17:32:00,
2015-03-29 11:37:00,55.8,24.9,30.29,SE,139,0.0,5.0,30,0.00,,SKC,0.00,789.00,VWS V14.01,2015-03-29 17:37:00,
2015-03-29 11:42:00,56.3,24.5,30.29,ESE,121,3.0,7.0,29,0.00,,SKC,0.00,566.00,VWS V14.01,2015-03-29 17:42:00,
2015-03-29 11:47:00,56.1,24.3,30.29,SSE,160,1.0,9.0,29,0.00,,SKC,0.00,149.00,VWS V14.01,2015-03-29 17:47:00,
2015-03-29 11:52:00,56.2,25.2,30.28,ESE,123,3.0,8.0,30,0.00,,SKC,0.00,97.00,VWS V14.01,2015-03-29 17:52:00,
2015-03-29 11:57:00,56.2,24.4,30.28,ESE,113,1.0,5.0,29,0.00,,SKC,0.00,72.00,VWS V14.01,2015-03-29 17:57:00,
2015-03-29 12:02:00,56.1,25.1,30.29,East,95,3.0,9.0,30,0.00,,SKC,0.00,91.00,VWS V14.01,2015-03-29 18:02:00,
2015-03-29 12:07:00,56.1,24.3,30.28,ESE,105,6.0,6.0,29,0.00,,SKC,0.00,156.00,VWS V14.01,2015-03-29 18:07:00,
2015-03-29 12:12:00,56.8,24.9,30.28,ESE,121,1.0,11.0,29,0.00,,SKC,0.00,842.00,VWS V14.01,2015-03-29 18:12:00,
2015-03-29 12:17:00,57.9,25.9,30.28,South,184,2.0,4.0,29,0.00,,SKC,0.00,853.00,VWS V14.01,2015-03-29 18:17:00,
2015-03-29 12:22:00,58.7,24.8,30.28,ESE,106,2.0,7.0,27,0.00,,SKC,0.00,863.00,VWS V14.01,2015-03-29 18:22:00,
2015-03-29 12:27:00,57.5,25.5,30.27,SSE,154,1.0,7.0,29,0.00,,SKC,0.00,867.00,VWS V14.01,2015-03-29 18:27:00,
2015-03-29 12:32:00,57.5,25.5,30.27,SE,131,3.0,7.0,29,0.00,,SKC,0.00,872.00,VWS V14.01,2015-03-29 18:32:00,
2015-03-29 12:37:00,57.8,24.1,30.27,SSE,155,4.0,8.0,27,0.00,,SKC,0.00,874.00,VWS V14.01,2015-03-29 18:37:00,
2015-03-29 12:42:00,57.4,24.6,30.27,SE,133,3.0,9.0,28,0.00,,SKC,0.00,879.00,VWS V14.01,2015-03-29 18:42:00,
2015-03-29 12:47:00,58.2,25.3,30.26,SSW,204,3.0,7.0,28,0.00,,SKC,0.00,882.00,VWS V14.01,2015-03-29 18:47:00,
2015-03-29 12:52:00,57.6,24.8,30.26,South,169,1.0,9.0,28,0.00,,SKC,0.00,884.00,VWS V14.01,2015-03-29 18:52:00,
2015-03-29 12:57:00,58.6,24.8,30.26,ESE,118,4.0,8.0,27,0.00,,SKC,0.00,884.00,VWS V14.01,2015-03-29 18:57:00,
2015-03-29 13:02:00,58.2,24.4,30.26,ESE,105,5.0,7.0,27,0.00,,SKC,0.00,882.00,VWS V14.01,2015-03-29 19:02:00,
2015-03-29 13:07:00,58.0,24.2,30.26,ESE,117,0.0,9.0,27,0.00,,SKC,0.00,882.00,VWS V14.01,2015-03-29 19:07:00,
2015-03-29 13:12:00,58.6,25.6,30.25,SSE,150,1.0,5.0,28,0.00,,SKC,0.00,881.00,VWS V14.01,2015-03-29 19:12:00,
2015-03-29 13:17:00,58.5,24.7,30.25,SE,140,2.0,7.0,27,0.00,,SKC,0.00,881.00,VWS V14.01,2015-03-29 19:17:00,
2015-03-29 13:22:00,58.9,25.0,30.25,ESE,103,1.0,7.0,27,0.00,,SKC,0.00,881.00,VWS V14.01,2015-03-29 19:22:00,
2015-03-29 13:27:00,59.7,24.8,30.25,South,186,2.0,6.0,26,0.00,,SKC,0.00,881.00,VWS V14.01,2015-03-29 19:27:00,
2015-03-29 13:32:00,60.7,25.6,30.24,ESE,114,0.0,3.0,26,0.00,,SKC,0.00,875.00,VWS V14.01,2015-03-29 19:32:00,
2015-03-29 13:37:00,60.1,25.1,30.24,ESE,109,4.0,11.0,26,0.00,,SKC,0.00,872.00,VWS V14.01,2015-03-29 19:37:00,
2015-03-29 13:42:00,60.0,26.0,30.24,ESE,113,0.0,6.0,27,0.00,,SKC,0.00,867.00,VWS V14.01,2015-03-29 19:42:00,
2015-03-29 13:47:00,60.9,25.8,30.24,SE,124,1.0,5.0,26,0.00,,SKC,0.00,868.00,VWS V14.01,2015-03-29 19:47:00,
2015-03-29 13:52:00,61.2,26.1,30.23,South,183,2.0,6.0,26,0.00,,SKC,0.00,858.00,VWS V14.01,2015-03-29 19:52:00,
2015-03-29 13:57:00,60.4,24.4,30.23,ESE,106,3.0,7.0,25,0.00,,SKC,0.00,860.00,VWS V14.01,2015-03-29 19:57:00,
2015-03-29 14:02:00,60.6,25.5,30.23,SE,133,1.0,7.0,26,0.00,,SKC,0.00,849.00,VWS V14.01,2015-03-29 20:02:00,
2015-03-29 14:07:00,61.1,25.0,30.23,South,175,2.0,7.0,25,0.00,,SKC,0.00,838.00,VWS V14.01,2015-03-29 20:07:00,
2015-03-29 14:12:00,61.3,27.1,30.22,SE,129,2.0,4.0,27,0.00,,SKC,0.00,837.00,VWS V14.01,2015-03-29 20:12:00,
2015-03-29 14:17:00,61.5,24.4,30.22,South,171,2.0,7.0,24,0.00,,SKC,0.00,831.00,VWS V14.01,2015-03-29 20:17:00,
2015-03-29 14:22:00,62.6,25.3,30.22,ESE,115,0.0,6.0,24,0.00,,SKC,0.00,828.00,VWS V14.01,2015-03-29 20:22:00,
2015-03-29 14:27:00,62.9,27.5,30.22,South,187,1.0,1.0,26,0.00,,SKC,0.00,821.00,VWS V14.01,2015-03-29 20:27:00,
2015-03-29 14:32:00,62.8,27.4,30.21,SSE,152,3.0,4.0,26,0.00,,SKC,0.00,805.00,VWS V14.01,2015-03-29 20:32:00,
2015-03-29 14:37:00,62.9,25.6,30.21,ESE,108,0.0,5.0,24,0.00,,SKC,0.00,802.00,VWS V14.01,2015-03-29 20:37:00,
2015-03-29 14:42:00,63.0,26.6,30.21,South,189,2.0,3.0,25,0.00,,SKC,0.00,796.00,VWS V14.01,2015-03-29 20:42:00,
2015-03-29 14:47:00,63.1,27.7,30.20,SSW,211,0.0,5.0,26,0.00,,SKC,0.00,782.00,VWS V14.01,2015-03-29 20:47:00,
2015-03-29 14:52:00,63.0,25.7,30.20,ESE,113,3.0,6.0,24,0.00,,SKC,0.00,775.00,VWS V14.01,2015-03-29 20:52:00,
2015-03-29 14:57:00,62.8,27.4,30.20,SE,135,2.0,5.0,26,0.00,,SKC,0.00,766.00,VWS V14.01,2015-03-29 20:57:00,
2015-03-29 15:02:00,62.5,26.2,30.20,SSE,148,1.0,3.0,25,0.00,,SKC,0.00,724.00,VWS V14.01,2015-03-29 21:02:00,
2015-03-29 15:07:00,63.1,26.7,30.19,SE,129,3.0,5.0,25,0.00,,SKC,0.00,745.00,VWS V14.01,2015-03-29 21:07:00,
2015-03-29 15:12:00,62.7,25.4,30.19,ESE,109,1.0,5.0,24,0.00,,SKC,0.00,744.00,VWS V14.01,2015-03-29 21:12:00,
2015-03-29 15:17:00,63.2,26.8,30.19,SE,134,0.0,5.0,25,0.00,,SKC,0.00,747.00,VWS V14.01,2015-03-29 21:17:00,
2015-03-29 15:22:00,63.6,26.2,30.20,ESE,119,2.0,8.0,24,0.00,,SKC,0.00,700.00,VWS V14.01,2015-03-29 21:22:00,
2015-03-29 15:27:00,63.9,26.4,30.20,SE,131,1.0,4.0,24,0.00,,SKC,0.00,708.00,VWS V14.01,2015-03-29 21:27:00,
2015-03-29 15:32:00,63.7,27.2,30.19,South,189,3.0,7.0,25,0.00,,SKC,0.00,694.00,VWS V14.01,2015-03-29 21:32:00,
2015-03-29 15:37:00,63.5,26.1,30.19,ESE,115,1.0,5.0,24,0.00,,SKC,0.00,673.00,VWS V14.01,2015-03-29 21:37:00,
2015-03-29 15:42:00,63.4,25.0,30.19,ESE,119,2.0,4.0,23,0.00,,SKC,0.00,656.00,VWS V14.01,2015-03-29 21:42:00,
2015-03-29 15:47:00,63.6,26.2,30.19,SE,128,2.0,6.0,24,0.00,,SKC,0.00,624.00,VWS V14.01,2015-03-29 21:47:00,
2015-03-29 15:52:00,63.7,28.2,30.19,SE,125,0.0,4.0,26,0.00,,SKC,0.00,84.00,VWS V14.01,2015-03-29 21:52:00,
2015-03-29 15:57:00,63.8,26.3,30.18,SSE,160,2.0,5.0,24,0.00,,SKC,0.00,69.00,VWS V14.01,2015-03-29 21:57:00,
2015-03-29 16:02:00,63.8,27.3,30.18,SE,141,1.0,4.0,25,0.00,,SKC,0.00,65.00,VWS V14.01,2015-03-29 22:02:00,
2015-03-29 16:07:00,64.0,26.5,30.18,SE,127,2.0,7.0,24,0.00,,SKC,0.00,56.00,VWS V14.01,2015-03-29 22:07:00,
2015-03-29 16:12:00,64.0,26.5,30.18,SSE,156,2.0,5.0,24,0.00,,SKC,0.00,54.00,VWS V14.01,2015-03-29 22:12:00,
2015-03-29 16:17:00,63.8,25.3,30.17,SSE,149,1.0,7.0,23,0.00,,SKC,0.00,54.00,VWS V14.01,2015-03-29 22:17:00,
2015-03-29 16:22:00,63.6,27.2,30.17,ESE,102,5.0,6.0,25,0.00,,SKC,0.00,54.00,VWS V14.01,2015-03-29 22:22:00,
2015-03-29 16:27:00,63.5,27.1,30.17,SE,135,2.0,5.0,25,0.00,,SKC,0.00,56.00,VWS V14.01,2015-03-29 22:27:00,
2015-03-29 16:32:00,63.5,26.1,30.17,ESE,115,1.0,5.0,24,0.00,,SKC,0.00,77.00,VWS V14.01,2015-03-29 22:32:00,
2015-03-29 16:37:00,63.5,26.1,30.17,SSW,198,3.0,6.0,24,0.00,,SKC,0.00,88.00,VWS V14.01,2015-03-29 22:37:00,
2015-03-29 16:42:00,63.0,25.7,30.17,South,182,1.0,4.0,24,0.00,,SKC,0.00,128.00,VWS V14.01,2015-03-29 22:42:00,
2015-03-29 16:47:00,63.0,26.6,30.17,East,89,5.0,6.0,25,0.00,,SKC,0.00,127.00,VWS V14.01,2015-03-29 22:47:00,
2015-03-29 16:52:00,63.2,26.8,30.17,SSW,192,2.0,6.0,25,0.00,,SKC,0.00,88.00,VWS V14.01,2015-03-29 22:52:00,
2015-03-29 16:57:00,63.4,27.0,30.17,SE,135,2.0,6.0,25,0.00,,SKC,0.00,77.00,VWS V14.01,2015-03-29 22:57:00,
2015-03-29 17:02:00,63.7,26.3,30.16,ESE,117,3.0,3.0,24,0.00,,SKC,0.00,56.00,VWS V14.01,2015-03-29 23:02:00,
2015-03-29 17:07:00,63.6,27.2,30.16,SE,146,3.0,3.0,25,0.00,,SKC,0.00,84.00,VWS V14.01,2015-03-29 23:07:00,
2015-03-29 17:12:00,63.6,27.2,30.16,South,173,2.0,8.0,25,0.00,,SKC,0.00,123.00,VWS V14.01,2015-03-29 23:12:00,
2015-03-29 17:17:00,63.9,26.4,30.16,ESE,108,4.0,4.0,24,0.00,,SKC,0.00,127.00,VWS V14.01,2015-03-29 23:17:00,
2015-03-29 17:22:00,64.2,26.7,30.16,SE,127,1.0,6.0,24,0.00,,SKC,0.00,380.00,VWS V14.01,2015-03-29 23:22:00,
2015-03-29 17:27:00,64.3,25.7,30.15,ESE,108,2.0,6.0,23,0.00,,SKC,0.00,345.00,VWS V14.01,2015-03-29 23:27:00,
2015-03-29 17:32:00,64.2,27.7,30.15,SE,127,1.0,4.0,25,0.00,,SKC,0.00,322.00,VWS V14.01,2015-03-29 23:32:00,
2015-03-29 17:37:00,64.4,26.9,30.15,ESE,118,3.0,4.0,24,0.00,,SKC,0.00,313.00,VWS V14.01,2015-03-29 23:37:00,
2015-03-29 17:42:00,64.3,27.8,30.15,ESE,115,2.0,5.0,25,0.00,,SKC,0.00,320.00,VWS V14.01,2015-03-29 23:42:00,
2015-03-29 17:47:00,64.1,28.5,30.15,SE,141,1.0,5.0,26,0.00,,SKC,0.00,279.00,VWS V14.01,2015-03-29 23:47:00,
2015-03-29 17:52:00,64.0,27.5,30.16,SE,125,5.0,5.0,25,0.00,,SKC,0.00,218.00,VWS V14.01,2015-03-29 23:52:00,
2015-03-29 17:57:00,64.0,27.5,30.16,SE,145,1.0,5.0,25,0.00,,SKC,0.00,206.00,VWS V14.01,2015-03-29 23:57:00,
2015-03-29 18:02:00,64.0,27.5,30.15,ESE,110,1.0,3.0,25,0.00,,SKC,0.00,216.00,VWS V14.01,2015-03-30 00:02:00,
2015-03-29 18:07:00,64.0,27.5,30.15,ESE,103,1.0,4.0,25,0.00,,SKC,0.00,202.00,VWS V14.01,2015-03-30 00:07:00,
2015-03-29 18:12:00,64.0,27.5,30.16,ESE,119,0.0,3.0,25,0.00,,SKC,0.00,179.00,VWS V14.01,2015-03-30 00:12:00,
2015-03-29 18:17:00,64.0,28.5,30.16,ESE,110,3.0,4.0,26,0.00,,SKC,0.00,67.00,VWS V14.01,2015-03-30 00:17:00,
2015-03-29 18:22:00,63.7,28.2,30.16,SE,140,0.0,2.0,26,0.00,,SKC,0.00,56.00,VWS V14.01,2015-03-30 00:22:00,
2015-03-29 18:27:00,63.4,27.9,30.16,South,171,1.0,2.0,26,0.00,,SKC,0.00,33.00,VWS V14.01,2015-03-30 00:27:00,
2015-03-29 18:32:00,63.0,27.6,30.16,SE,137,0.0,0.0,26,0.00,,SKC,0.00,23.00,VWS V14.01,2015-03-30 00:32:00,
2015-03-29 18:37:00,62.6,28.2,30.16,SE,137,0.0,1.0,27,0.00,,SKC,0.00,26.00,VWS V14.01,2015-03-30 00:37:00,
2015-03-29 18:42:00,62.2,27.8,30.16,SE,137,0.0,0.0,27,0.00,,SKC,0.00,28.00,VWS V14.01,2015-03-30 00:42:00,
2015-03-29 18:47:00,61.8,28.4,30.16,SE,137,0.0,1.0,28,0.00,,SKC,0.00,19.00,VWS V14.01,2015-03-30 00:47:00,
2015-03-29 18:52:00,61.5,28.1,30.16,SE,136,0.0,1.0,28,0.00,,SKC,0.00,12.00,VWS V14.01,2015-03-30 00:52:00,
2015-03-29 18:57:00,61.1,28.6,30.16,SE,136,0.0,1.0,29,0.00,,SKC,0.00,11.00,VWS V14.01,2015-03-30 00:57:00,
2015-03-29 19:02:00,60.7,29.1,30.16,SE,136,0.0,0.0,30,0.00,,SKC,0.00,11.00,VWS V14.01,2015-03-30 01:02:00,
2015-03-29 19:07:00,60.1,28.6,30.16,SE,136,0.0,0.0,30,0.00,,SKC,0.00,9.00,VWS V14.01,2015-03-30 01:07:00,
2015-03-29 19:12:00,59.5,28.9,30.16,SE,136,0.0,0.0,31,0.00,,SKC,0.00,9.00,VWS V14.01,2015-03-30 01:12:00,
2015-03-29 19:17:00,59.0,29.2,30.16,SE,136,0.0,0.0,32,0.00,,SKC,0.00,5.00,VWS V14.01,2015-03-30 01:17:00,
2015-03-29 19:22:00,58.5,30.2,30.17,SE,136,0.0,0.0,34,0.00,,SKC,0.00,5.00,VWS V14.01,2015-03-30 01:22:00,
2015-03-29 19:27:00,58.0,29.8,30.17,SE,136,0.0,0.0,34,0.00,,SKC,0.00,0.00,VWS V14.01,2015-03-30 01:27:00,